createdAt,value
2016-02-05T00:00:47.606Z,79.25
2016-02-05T00:01:47.577Z,79.25
2016-02-05T00:02:47.580Z,79.25
2016-02-05T00:03:47.582Z,79.34
2016-02-05T00:04:47.570Z,79.25
2016-02-05T00:05:47.557Z,79.25
2016-02-05T00:06:47.560Z,79.25
2016-02-05T00:07:47.563Z,79.25
2016-02-05T00:08:47.565Z,79.44
2016-02-05T00:09:47.552Z,79.72
2016-02-05T00:10:47.572Z,79.72
2016-02-05T00:11:47.542Z,80.1
2016-02-05T00:12:47.545Z,79.91
2016-02-05T00:13:47.548Z,80
2016-02-05T00:14:47.535Z,79.72
2016-02-05T00:15:47.543Z,79.82
2016-02-05T00:16:47.530Z,79.72
2016-02-05T00:17:47.534Z,79.72
2016-02-05T00:18:47.520Z,79.72
2016-02-05T00:19:47.523Z,79.72
2016-02-05T00:20:47.526Z,79.82
2016-02-05T00:21:47.356Z,79.82
2016-02-05T00:22:47.517Z,80
2016-02-05T00:23:47.362Z,80.1
2016-02-05T00:24:47.506Z,79.91
2016-02-05T00:25:47.498Z,80.1
2016-02-05T00:26:47.517Z,79.91
2016-02-05T00:27:47.488Z,79.91
2016-02-05T00:28:47.491Z,80.38
2016-02-05T00:29:47.494Z,80.38
2016-02-05T00:30:47.487Z,80.29
2016-02-05T00:31:47.333Z,80.19
2016-02-05T00:32:47.482Z,80.19
2016-02-05T00:33:47.485Z,80.29
2016-02-05T00:34:47.487Z,80.29
2016-02-05T00:35:47.484Z,80.29
2016-02-05T00:36:47.471Z,80.19
2016-02-05T00:37:47.458Z,80.1
2016-02-05T00:38:47.461Z,80.29
2016-02-05T00:39:47.464Z,80
2016-02-05T00:40:47.466Z,80.67
2016-02-05T00:41:47.469Z,80.48
2016-02-05T00:42:47.456Z,80.57
2016-02-05T00:43:47.450Z,80.57
2016-02-05T00:44:47.452Z,80.19
2016-02-05T00:45:47.439Z,80.19
2016-02-05T00:46:47.442Z,80.57
2016-02-05T00:47:47.445Z,80.57
2016-02-05T00:48:47.432Z,80.67
2016-02-05T00:49:47.434Z,80.76
2016-02-05T00:50:47.437Z,80.86
2016-02-05T00:51:47.456Z,80.86
2016-02-05T00:52:47.428Z,81.14
2016-02-05T00:53:47.414Z,80.95
2016-02-05T00:54:47.417Z,80.76
2016-02-05T00:55:47.407Z,81.24
2016-02-05T00:56:47.426Z,80.76
2016-02-05T00:57:47.401Z,80.76
2016-02-05T00:58:47.403Z,80.76
2016-02-05T00:59:47.421Z,80.57
2016-02-05T01:00:47.393Z,80.76
2016-02-05T01:01:47.396Z,80.76
2016-02-05T01:02:47.398Z,80.76
2016-02-05T01:03:47.385Z,80.48
2016-02-05T01:04:47.388Z,81.05
2016-02-05T01:05:47.391Z,80.86
2016-02-05T01:06:47.409Z,80.95
2016-02-05T01:07:47.382Z,80.57
2016-02-05T01:08:47.385Z,81.05
2016-02-05T01:09:47.371Z,81.33
2016-02-05T01:10:47.405Z,81.24
2016-02-05T01:11:47.376Z,81.24
2016-02-05T01:12:47.365Z,81.24
2016-02-05T01:13:47.367Z,81.24
2016-02-05T01:14:47.370Z,81.24
2016-02-05T01:15:47.357Z,81.05
2016-02-05T01:16:47.360Z,81.24
2016-02-05T01:17:47.351Z,81.24
2016-02-05T01:18:47.338Z,81.52
2016-02-05T01:19:47.340Z,81.43
2016-02-05T01:20:47.342Z,81.43
2016-02-05T01:21:47.346Z,81.24
2016-02-05T01:22:47.333Z,81.43
2016-02-05T01:23:47.336Z,81.9
2016-02-05T01:24:47.338Z,81.81
2016-02-05T01:25:47.326Z,81.71
2016-02-05T01:26:47.328Z,81.81
2016-02-05T01:27:47.320Z,81.43
2016-02-05T01:28:47.307Z,81.52
2016-02-05T01:29:47.310Z,81.52
2016-02-05T01:30:47.313Z,81.71
2016-02-05T01:31:47.315Z,81.62
2016-02-05T01:32:47.302Z,81.71
2016-02-05T01:33:47.305Z,81.52
2016-02-05T01:34:47.293Z,81.43
2016-02-05T01:35:47.314Z,81.52
2016-02-05T01:36:47.302Z,81.62
2016-02-05T01:37:47.305Z,82.28
2016-02-05T01:38:47.276Z,81.9
2016-02-05T01:39:47.278Z,82.09
2016-02-05T01:40:47.281Z,82.18
2016-02-05T01:41:47.283Z,82.18
2016-02-05T01:42:47.286Z,82.28
2016-02-05T01:43:47.274Z,82.09
2016-02-05T01:44:47.260Z,82.18
2016-02-05T01:45:47.263Z,81.81
2016-02-05T01:46:47.265Z,81.9
2016-02-05T01:47:47.270Z,81.9
2016-02-05T01:48:47.256Z,82.09
2016-02-05T01:49:47.244Z,81.99
2016-02-05T01:50:47.246Z,82.09
2016-02-05T01:51:47.249Z,82.09
2016-02-05T01:52:47.303Z,82.18
2016-02-05T01:53:47.242Z,81.9
2016-02-05T01:54:47.245Z,81.81
2016-02-05T01:55:47.235Z,82.18
2016-02-05T01:56:47.223Z,81.99
2016-02-05T01:57:47.226Z,82.37
2016-02-05T01:58:47.220Z,82.37
2016-02-05T01:59:47.223Z,82.09
2016-02-05T02:00:47.226Z,82.18
2016-02-05T02:01:47.212Z,82.13
2016-02-05T02:02:47.215Z,82.13
2016-02-05T02:03:47.223Z,81.9
2016-02-05T02:04:47.211Z,82.09
2016-02-05T02:05:47.213Z,82.47
2016-02-05T02:06:47.199Z,82.09
2016-02-05T02:07:47.203Z,82.09
2016-02-05T02:08:47.190Z,82.56
2016-02-05T02:09:47.193Z,82.23
2016-02-05T02:10:47.181Z,82.47
2016-02-05T02:11:47.183Z,82.7
2016-02-05T02:12:47.187Z,82.6
2016-02-05T02:13:47.173Z,82.7
2016-02-05T02:14:47.176Z,82.32
2016-02-05T02:15:47.179Z,82.7
2016-02-05T02:16:47.181Z,82.56
2016-02-05T02:17:47.168Z,82.7
2016-02-05T02:18:47.171Z,82.6
2016-02-05T02:19:47.158Z,82.7
2016-02-05T02:20:47.147Z,82.51
2016-02-05T02:21:47.166Z,82.6
2016-02-05T02:22:47.153Z,82.42
2016-02-05T02:23:47.140Z,82.6
2016-02-05T02:24:47.142Z,82.51
2016-02-05T02:25:47.130Z,82.7
2016-02-05T02:26:47.148Z,82.7
2016-02-05T02:27:47.138Z,82.51
2016-02-05T02:28:47.124Z,82.51
2016-02-05T02:29:47.127Z,82.42
2016-02-05T02:30:47.135Z,82.51
2016-02-05T02:31:47.107Z,82.51
2016-02-05T02:32:47.140Z,82.51
2016-02-05T02:33:47.128Z,82.51
2016-02-05T02:34:47.115Z,82.51
2016-02-05T02:35:47.118Z,82.42
2016-02-05T02:36:47.104Z,82.51
2016-02-05T02:37:47.107Z,82.42
2016-02-05T02:38:47.095Z,82.32
2016-02-05T02:39:47.098Z,82.32
2016-02-05T02:40:47.085Z,82.42
2016-02-05T02:41:47.087Z,82.42
2016-02-05T02:42:47.091Z,82.42
2016-02-05T02:43:47.078Z,82.6
2016-02-05T02:44:47.085Z,82.6
2016-02-05T02:45:46.931Z,82.32
2016-02-05T02:46:47.090Z,82.32
2016-02-05T02:47:47.093Z,82.51
2016-02-05T02:48:47.079Z,82.32
2016-02-05T02:49:47.067Z,82.32
2016-02-05T02:50:47.070Z,82.6
2016-02-05T02:51:47.073Z,82.42
2016-02-05T02:52:47.062Z,82.42
2016-02-05T02:53:47.065Z,82.42
2016-02-05T02:54:47.052Z,82.32
2016-02-05T02:55:47.055Z,82.7
2016-02-05T02:56:47.042Z,82.42
2016-02-05T02:57:47.046Z,82.51
2016-02-05T02:58:47.048Z,82.7
2016-02-05T02:59:47.036Z,82.51
2016-02-05T03:00:47.042Z,82.42
2016-02-05T03:01:47.029Z,82.7
2016-02-05T03:02:47.032Z,82.6
2016-02-05T03:03:47.035Z,82.7
2016-02-05T03:04:47.022Z,82.51
2016-02-05T03:05:47.025Z,82.42
2016-02-05T03:06:47.028Z,82.51
2016-02-05T03:07:47.014Z,82.23
2016-02-05T03:08:47.003Z,82.6
2016-02-05T03:09:47.020Z,82.6
2016-02-05T03:10:46.992Z,82.51
2016-02-05T03:11:46.994Z,82.51
2016-02-05T03:12:46.998Z,82.13
2016-02-05T03:13:47.001Z,82.51
2016-02-05T03:14:46.992Z,82.23
2016-02-05T03:15:46.982Z,82.51
2016-02-05T03:16:47.000Z,82.23
2016-02-05T03:17:46.988Z,82.32
2016-02-05T03:18:46.974Z,82.32
2016-02-05T03:19:46.977Z,82.23
2016-02-05T03:20:46.968Z,82.79
2016-02-05T03:21:46.971Z,82.51
2016-02-05T03:22:46.973Z,82.23
2016-02-05T03:23:46.961Z,82.23
2016-02-05T03:24:46.806Z,82.23
2016-02-05T03:25:46.951Z,82.13
2016-02-05T03:26:46.954Z,82.23
2016-02-05T03:27:46.957Z,82.23
2016-02-05T03:28:46.943Z,82.32
2016-02-05T03:29:46.946Z,82.89
2016-02-05T03:30:46.949Z,82.98
2016-02-05T03:31:46.933Z,82.98
2016-02-05T03:32:46.935Z,82.79
2016-02-05T03:33:46.937Z,82.79
2016-02-05T03:34:46.924Z,83.08
2016-02-05T03:35:46.927Z,82.89
2016-02-05T03:36:46.930Z,82.89
2016-02-05T03:37:46.917Z,82.79
2016-02-05T03:38:46.922Z,83.08
2016-02-05T03:39:46.924Z,82.98
2016-02-05T03:40:46.912Z,82.79
2016-02-05T03:41:46.898Z,82.79
2016-02-05T03:42:46.901Z,82.79
2016-02-05T03:43:46.904Z,82.7
2016-02-05T03:44:46.891Z,82.7
2016-02-05T03:45:46.911Z,82.79
2016-02-05T03:46:46.882Z,82.51
2016-02-05T03:47:46.886Z,83.08
2016-02-05T03:48:46.888Z,83.08
2016-02-05T03:49:46.875Z,83.17
2016-02-05T03:50:46.877Z,83.17
2016-02-05T03:51:46.897Z,83.17
2016-02-05T03:52:46.868Z,82.89
2016-02-05T03:53:46.917Z,82.98
2016-02-05T03:54:46.858Z,83.08
2016-02-05T03:55:46.859Z,83.17
2016-02-05T03:56:46.863Z,83.17
2016-02-05T03:57:46.866Z,82.98
2016-02-05T03:58:46.855Z,83.08
2016-02-05T03:59:46.857Z,82.89
2016-02-05T04:00:46.836Z,83.17
2016-02-05T04:01:46.839Z,83.17
2016-02-05T04:02:46.842Z,83.46
2016-02-05T04:03:46.828Z,83.08
2016-02-05T04:04:46.832Z,83.17
2016-02-05T04:05:46.837Z,83.08
2016-02-05T04:06:46.825Z,83.17
2016-02-05T04:07:46.811Z,83.17
2016-02-05T04:08:46.814Z,83.27
2016-02-05T04:09:46.817Z,83.08
2016-02-05T04:10:46.835Z,83.08
2016-02-05T04:11:46.806Z,83.27
2016-02-05T04:12:46.809Z,83.27
2016-02-05T04:13:46.796Z,83.27
2016-02-05T04:14:46.799Z,83.17
2016-02-05T04:15:46.817Z,83.27
2016-02-05T04:16:46.788Z,83.27
2016-02-05T04:17:46.807Z,83.27
2016-02-05T04:18:46.794Z,83.27
2016-02-05T04:19:46.783Z,83.27
2016-02-05T04:20:46.769Z,83.08
2016-02-05T04:21:46.788Z,82.98
2016-02-05T04:22:46.764Z,83.27
2016-02-05T04:23:46.768Z,82.98
2016-02-05T04:24:46.770Z,83.27
2016-02-05T04:25:46.772Z,83.08
2016-02-05T04:26:46.760Z,83.08
2016-02-05T04:27:46.762Z,83.17
2016-02-05T04:28:46.766Z,83.27
2016-02-05T04:29:46.750Z,83.27
2016-02-05T04:30:46.737Z,83.27
2016-02-05T04:31:46.756Z,83.27
2016-02-05T04:32:46.736Z,83.17
2016-02-05T04:33:46.716Z,83.17
2016-02-05T04:34:46.725Z,83.17
2016-02-05T04:35:46.705Z,83.17
2016-02-05T04:36:46.684Z,83.27
2016-02-05T04:37:46.683Z,83.17
2016-02-05T04:38:46.667Z,83.17
2016-02-05T04:39:46.683Z,83.36
2016-02-05T04:40:46.668Z,83.74
2016-02-05T04:41:46.653Z,83.46
2016-02-05T04:42:46.654Z,83.55
2016-02-05T04:43:46.656Z,83.46
2016-02-05T04:44:46.641Z,83.65
2016-02-05T04:45:46.643Z,83.74
2016-02-05T04:46:46.629Z,83.65
2016-02-05T04:47:46.646Z,83.74
2016-02-05T04:48:46.634Z,83.55
2016-02-05T04:49:46.620Z,83.55
2016-02-05T04:50:46.624Z,83.36
2016-02-05T04:51:46.641Z,83.55
2016-02-05T04:52:46.613Z,83.65
2016-02-05T04:53:46.616Z,83.65
2016-02-05T04:54:46.603Z,83.84
2016-02-05T04:55:46.625Z,83.84
2016-02-05T04:56:46.613Z,83.94
2016-02-05T04:57:46.599Z,83.94
2016-02-05T04:58:46.603Z,83.84
2016-02-05T04:59:46.590Z,83.46
2016-02-05T05:00:46.594Z,83.46
2016-02-05T05:01:46.582Z,83.65
2016-02-05T05:02:46.584Z,83.74
2016-02-05T05:03:46.590Z,83.46
2016-02-05T05:04:46.577Z,83.46
2016-02-05T05:05:46.579Z,83.65
2016-02-05T05:06:46.582Z,83.65
2016-02-05T05:07:46.570Z,83.65
2016-02-05T05:08:46.557Z,83.65
2016-02-05T05:09:46.559Z,83.84
2016-02-05T05:10:46.593Z,83.65
2016-02-05T05:11:46.565Z,83.65
2016-02-05T05:12:46.552Z,83.65
2016-02-05T05:13:46.570Z,83.65
2016-02-05T05:14:46.557Z,83.65
2016-02-05T05:15:46.590Z,83.65
2016-02-05T05:16:46.547Z,83.65
2016-02-05T05:17:46.535Z,83.74
2016-02-05T05:18:46.537Z,83.46
2016-02-05T05:19:46.540Z,83.55
2016-02-05T05:20:46.527Z,83.55
2016-02-05T05:21:46.530Z,83.55
2016-02-05T05:22:46.533Z,83.36
2016-02-05T05:23:46.520Z,83.46
2016-02-05T05:24:46.508Z,83.46
2016-02-05T05:25:46.526Z,83.46
2016-02-05T05:26:46.513Z,83.46
2016-02-05T05:27:46.516Z,83.74
2016-02-05T05:28:46.523Z,83.55
2016-02-05T05:29:46.510Z,83.74
2016-02-05T05:30:46.514Z,83.36
2016-02-05T05:31:46.502Z,83.55
2016-02-05T05:32:46.489Z,83.65
2016-02-05T05:33:46.820Z,83.55
2016-02-05T05:34:46.495Z,83.55
2016-02-05T05:35:46.482Z,83.84
2016-02-05T05:36:46.472Z,83.17
2016-02-05T05:37:46.522Z,83.46
2016-02-05T05:38:46.478Z,83.55
2016-02-05T05:39:46.481Z,83.55
2016-02-05T05:40:46.483Z,83.55
2016-02-05T05:41:46.485Z,83.36
2016-02-05T05:42:46.505Z,83.55
2016-02-05T05:43:46.446Z,83.46
2016-02-05T05:44:46.464Z,83.74
2016-02-05T05:45:46.466Z,84.03
2016-02-05T05:46:46.454Z,83.94
2016-02-05T05:47:46.457Z,83.74
2016-02-05T05:48:46.460Z,83.74
2016-02-05T05:49:46.447Z,83.84
2016-02-05T05:50:46.434Z,83.94
2016-02-05T05:51:46.436Z,83.84
2016-02-05T05:52:46.425Z,83.74
2016-02-05T05:53:46.427Z,83.74
2016-02-05T05:54:46.430Z,83.94
2016-02-05T05:55:46.416Z,84.03
2016-02-05T05:56:46.418Z,83.94
2016-02-05T05:57:46.422Z,83.36
2016-02-05T05:58:46.408Z,83.94
2016-02-05T05:59:46.412Z,83.46
2016-02-05T06:00:46.414Z,83.94
2016-02-05T06:01:46.403Z,83.94
2016-02-05T06:02:46.405Z,83.94
2016-02-05T06:03:46.408Z,83.94
2016-02-05T06:04:46.395Z,83.94
2016-02-05T06:05:46.397Z,84.03
2016-02-05T06:06:46.400Z,84.03
2016-02-05T06:07:46.403Z,83.84
2016-02-05T06:08:46.373Z,83.94
2016-02-05T06:09:46.376Z,83.94
2016-02-05T06:10:46.378Z,83.94
2016-02-05T06:11:46.365Z,83.94
2016-02-05T06:12:46.367Z,83.94
2016-02-05T06:13:46.370Z,83.84
2016-02-05T06:14:46.358Z,83.94
2016-02-05T06:15:46.361Z,83.55
2016-02-05T06:16:46.364Z,83.74
2016-02-05T06:17:46.350Z,84.03
2016-02-05T06:18:46.354Z,84.03
2016-02-05T06:19:46.342Z,84.03
2016-02-05T06:20:46.344Z,84.03
2016-02-05T06:21:46.336Z,83.94
2016-02-05T06:22:46.338Z,84.03
2016-02-05T06:23:46.341Z,83.94
2016-02-05T06:24:46.328Z,84.03
2016-02-05T06:25:46.330Z,83.84
2016-02-05T06:26:46.333Z,83.84
2016-02-05T06:27:46.335Z,83.65
2016-02-05T06:28:46.323Z,83.74
2016-02-05T06:29:46.321Z,84.12
2016-02-05T06:30:46.324Z,84.03
2016-02-05T06:31:46.311Z,83.84
2016-02-05T06:32:46.314Z,84.03
2016-02-05T06:33:46.301Z,84.31
2016-02-05T06:34:46.304Z,84.31
2016-02-05T06:35:46.306Z,84.22
2016-02-05T06:36:46.294Z,84.22
2016-02-05T06:37:46.297Z,84.31
2016-02-05T06:38:46.283Z,84.31
2016-02-05T06:39:46.286Z,84.22
2016-02-05T06:40:46.289Z,84.22
2016-02-05T06:41:46.277Z,84.31
2016-02-05T06:42:46.279Z,84.22
2016-02-05T06:43:46.267Z,84.22
2016-02-05T06:44:46.269Z,84.12
2016-02-05T06:45:46.272Z,83.65
2016-02-05T06:46:46.259Z,84.41
2016-02-05T06:47:46.262Z,84.03
2016-02-05T06:48:46.264Z,83.84
2016-02-05T06:49:46.250Z,83.84
2016-02-05T06:50:46.253Z,84.03
2016-02-05T06:51:46.257Z,83.65
2016-02-05T06:52:46.244Z,84.12
2016-02-05T06:53:46.246Z,84.22
2016-02-05T06:54:46.250Z,84.41
2016-02-05T06:55:46.236Z,84.03
2016-02-05T06:56:46.240Z,84.31
2016-02-05T06:57:46.227Z,84.03
2016-02-05T06:58:46.230Z,84.22
2016-02-05T06:59:46.213Z,83.94
2016-02-05T07:00:46.233Z,84.03
2016-02-05T07:01:46.219Z,84.22
2016-02-05T07:02:46.206Z,84.22
2016-02-05T07:03:46.224Z,84.22
2016-02-05T07:04:46.213Z,84.12
2016-02-05T07:05:46.215Z,84.03
2016-02-05T07:06:46.218Z,84.12
2016-02-05T07:07:46.205Z,84.22
2016-02-05T07:08:46.208Z,84.03
2016-02-05T07:09:46.196Z,84.12
2016-02-05T07:10:46.182Z,84.03
2016-02-05T07:11:46.201Z,84.12
2016-02-05T07:12:46.172Z,84.22
2016-02-05T07:13:46.176Z,84.12
2016-02-05T07:14:46.194Z,84.03
2016-02-05T07:15:46.182Z,84.22
2016-02-05T07:16:46.168Z,84.26
2016-02-05T07:17:46.171Z,84.36
2016-02-05T07:18:46.174Z,84.36
2016-02-05T07:19:46.162Z,84.36
2016-02-05T07:20:46.164Z,84.07
2016-02-05T07:21:46.158Z,84.12
2016-02-05T07:22:46.161Z,83.78
2016-02-05T07:23:46.147Z,83.69
2016-02-05T07:24:46.150Z,83.78
2016-02-05T07:25:46.747Z,83.78
2016-02-05T07:26:46.141Z,83.78
2016-02-05T07:27:46.143Z,83.69
2016-02-05T07:28:46.131Z,83.69
2016-02-05T07:29:46.136Z,83.69
2016-02-05T07:30:46.122Z,83.88
2016-02-05T07:31:46.125Z,83.97
2016-02-05T07:32:46.128Z,84.07
2016-02-05T07:33:46.130Z,84.07
2016-02-05T07:34:46.135Z,83.69
2016-02-05T07:35:46.107Z,83.69
2016-02-05T07:36:46.110Z,83.5
2016-02-05T07:37:46.127Z,83.69
2016-02-05T07:38:46.115Z,83.97
2016-02-05T07:39:46.101Z,83.5
2016-02-05T07:40:46.105Z,83.78
2016-02-05T07:41:46.107Z,83.59
2016-02-05T07:42:46.095Z,83.22
2016-02-05T07:43:46.097Z,83.03
2016-02-05T07:44:46.099Z,83.12
2016-02-05T07:45:46.087Z,82.84
2016-02-05T07:46:46.090Z,83.22
2016-02-05T07:47:46.108Z,82.84
2016-02-05T07:48:46.078Z,83.22
2016-02-05T07:49:46.081Z,83.22
2016-02-05T07:50:46.084Z,82.55
2016-02-05T07:51:46.071Z,83.31
2016-02-05T07:52:46.058Z,82.93
2016-02-05T07:53:46.077Z,82.74
2016-02-05T07:54:46.065Z,82.78
2016-02-05T07:55:46.053Z,82.88
2016-02-05T07:56:46.055Z,82.88
2016-02-05T07:57:46.043Z,83.16
2016-02-05T07:58:46.045Z,83.12
2016-02-05T07:59:46.063Z,83.07
2016-02-05T08:00:46.041Z,82.97
2016-02-05T08:01:46.043Z,83.07
2016-02-05T08:02:46.049Z,82.31
2016-02-05T08:03:46.036Z,82.59
2016-02-05T08:04:46.024Z,82.78
2016-02-05T08:05:46.027Z,82.4
2016-02-05T08:06:46.029Z,82.59
2016-02-05T08:07:46.016Z,82.4
2016-02-05T08:08:46.036Z,82.03
2016-02-05T08:09:46.038Z,82.21
2016-02-05T08:10:46.041Z,82.31
2016-02-05T08:11:46.011Z,81.93
2016-02-05T08:12:46.014Z,81.93
2016-02-05T08:13:46.017Z,81.84
2016-02-05T08:14:46.004Z,81.93
2016-02-05T08:15:46.007Z,81.93
2016-02-05T08:16:46.010Z,81.84
2016-02-05T08:17:45.996Z,81.36
2016-02-05T08:18:45.999Z,81.55
2016-02-05T08:19:45.271Z,81.3
2016-02-05T08:20:45.976Z,81.21
2016-02-05T08:21:45.994Z,81.02
2016-02-05T08:22:45.983Z,81.02
2016-02-05T08:23:45.969Z,81.21
2016-02-05T08:24:45.971Z,80.83
2016-02-05T08:25:45.974Z,80.07
2016-02-05T08:26:45.977Z,80.55
2016-02-05T08:27:45.967Z,80.35
2016-02-05T08:28:45.969Z,79.88
2016-02-05T08:29:45.956Z,80.21
2016-02-05T08:30:45.961Z,79.31
2016-02-05T08:31:45.963Z,79.73
2016-02-05T08:32:45.950Z,79.83
2016-02-05T08:33:45.953Z,79.25
2016-02-05T08:34:45.940Z,78.97
2016-02-05T08:35:45.974Z,78.97
2016-02-05T08:36:45.946Z,78.88
2016-02-05T08:37:45.948Z,78.78
2016-02-05T08:38:45.935Z,78.4
2016-02-05T08:39:45.954Z,77.83
2016-02-05T08:40:45.941Z,77.45
2016-02-05T08:41:45.928Z,77.17
2016-02-05T08:42:45.931Z,77.36
2016-02-05T08:43:45.918Z,77.17
2016-02-05T08:44:45.921Z,76.88
2016-02-05T08:45:45.924Z,76.92
2016-02-05T08:46:45.927Z,76.73
2016-02-05T08:47:45.915Z,76.63
2016-02-05T08:48:45.918Z,76.35
2016-02-05T08:49:45.905Z,76.35
2016-02-05T08:50:45.908Z,75.78
2016-02-05T08:51:45.895Z,75.59
2016-02-05T08:52:45.900Z,75.3
2016-02-05T08:53:45.902Z,75.59
2016-02-05T08:54:45.905Z,75.4
2016-02-05T08:55:45.892Z,75.21
2016-02-05T08:56:45.895Z,75.02
2016-02-05T08:57:45.897Z,74.73
2016-02-05T08:58:45.885Z,74.54
2016-02-05T08:59:45.887Z,74.44
2016-02-05T09:00:45.893Z,74.82
2016-02-05T09:01:45.881Z,75.02
2016-02-05T09:02:45.884Z,74.16
2016-02-05T09:03:45.887Z,74.16
2016-02-05T09:04:45.873Z,74.26
2016-02-05T09:05:45.879Z,73.97
2016-02-05T09:06:45.882Z,73.69
2016-02-05T09:07:45.869Z,73.59
2016-02-05T09:08:45.871Z,73.3
2016-02-05T09:09:45.859Z,74.07
2016-02-05T09:10:45.862Z,74.07
2016-02-05T09:11:45.879Z,72.92
2016-02-05T09:12:45.852Z,73.08
2016-02-05T09:13:45.856Z,73.49
2016-02-05T09:14:45.846Z,72.99
2016-02-05T09:15:45.849Z,73.59
2016-02-05T09:16:45.852Z,72.92
2016-02-05T09:17:45.841Z,73.18
2016-02-05T09:18:45.843Z,74.16
2016-02-05T09:19:45.861Z,73.08
2016-02-05T09:20:45.840Z,73.3
2016-02-05T09:21:45.843Z,73.21
2016-02-05T09:22:45.830Z,73.21
2016-02-05T09:23:45.832Z,73.11
2016-02-05T09:24:45.835Z,72.45
2016-02-05T09:25:45.827Z,72.55
2016-02-05T09:26:45.829Z,72.45
2016-02-05T09:27:45.832Z,72.83
2016-02-05T09:28:45.819Z,71.97
2016-02-05T09:29:45.821Z,72.26
2016-02-05T09:30:45.808Z,72.26
2016-02-05T09:31:45.810Z,72.26
2016-02-05T09:32:45.813Z,72.26
2016-02-05T09:33:45.816Z,72.35
2016-02-05T09:34:45.804Z,72.26
2016-02-05T09:35:45.806Z,72.55
2016-02-05T09:36:45.794Z,72.35
2016-02-05T09:37:45.796Z,72.35
2016-02-05T09:38:45.799Z,72.26
2016-02-05T09:39:45.801Z,72.45
2016-02-05T09:40:45.804Z,72.64
2016-02-05T09:41:45.792Z,71.97
2016-02-05T09:42:45.794Z,71.91
2016-02-05T09:43:45.797Z,71.53
2016-02-05T09:44:45.783Z,71.63
2016-02-05T09:45:45.787Z,71.34
2016-02-05T09:46:45.774Z,70.77
2016-02-05T09:47:45.777Z,70.49
2016-02-05T09:48:45.767Z,70.39
2016-02-05T09:49:45.771Z,70.58
2016-02-05T09:50:45.804Z,70.68
2016-02-05T09:51:45.775Z,70.58
2016-02-05T09:52:45.762Z,70.49
2016-02-05T09:53:45.766Z,70.49
2016-02-05T09:54:45.769Z,70.39
2016-02-05T09:55:45.772Z,70.49
2016-02-05T09:56:45.758Z,71.02
2016-02-05T09:57:45.761Z,70.74
2016-02-05T09:58:45.765Z,70.83
2016-02-05T09:59:45.753Z,70.83
2016-02-05T10:00:45.755Z,70.83
2016-02-05T10:01:45.773Z,70.83
2016-02-05T10:02:45.745Z,71.12
2016-02-05T10:03:45.748Z,70.93
2016-02-05T10:04:45.735Z,71.22
2016-02-05T10:05:45.739Z,71.31
2016-02-05T10:06:45.741Z,71.12
2016-02-05T10:07:45.744Z,71.12
2016-02-05T10:08:45.732Z,71.25
2016-02-05T10:09:45.734Z,71.22
2016-02-05T10:10:45.737Z,70.87
2016-02-05T10:11:45.740Z,70.87
2016-02-05T10:12:45.726Z,70.87
2016-02-05T10:13:45.729Z,70.97
2016-02-05T10:14:45.716Z,70.58
2016-02-05T10:15:45.718Z,70.49
2016-02-05T10:16:45.723Z,70.58
2016-02-05T10:17:45.710Z,70.68
2016-02-05T10:18:45.717Z,69.92
2016-02-05T10:19:45.720Z,70.01
2016-02-05T10:20:45.706Z,69.63
2016-02-05T10:21:45.709Z,69.92
2016-02-05T10:22:45.712Z,69.92
2016-02-05T10:23:45.699Z,69.92
2016-02-05T10:24:45.701Z,69.54
2016-02-05T10:25:45.704Z,69.25
2016-02-05T10:26:45.706Z,69.44
2016-02-05T10:27:45.695Z,69.63
2016-02-05T10:28:45.697Z,69.1
2016-02-05T10:29:45.700Z,68.71
2016-02-05T10:30:45.686Z,68.81
2016-02-05T10:31:45.689Z,68.71
2016-02-05T10:32:45.692Z,68.71
2016-02-05T10:33:45.683Z,68.05
2016-02-05T10:34:45.685Z,68.33
2016-02-05T10:35:45.688Z,67.95
2016-02-05T10:36:45.675Z,68.33
2016-02-05T10:37:45.678Z,67.67
2016-02-05T10:38:45.682Z,67.63
2016-02-05T10:39:45.669Z,68.24
2016-02-05T10:40:45.672Z,67.95
2016-02-05T10:41:45.690Z,67.82
2016-02-05T10:42:45.662Z,68.21
2016-02-05T10:43:45.665Z,68.21
2016-02-05T10:44:45.667Z,67.73
2016-02-05T10:45:45.654Z,68.21
2016-02-05T10:46:45.657Z,68.3
2016-02-05T10:47:45.659Z,68.3
2016-02-05T10:48:45.646Z,68.21
2016-02-05T10:49:45.649Z,68.59
2016-02-05T10:50:45.651Z,68.87
2016-02-05T10:51:45.654Z,68.59
2016-02-05T10:52:45.642Z,68.87
2016-02-05T10:53:45.644Z,68.96
2016-02-05T10:54:45.647Z,68.77
2016-02-05T10:55:45.634Z,68.96
2016-02-05T10:56:45.637Z,68.4
2016-02-05T10:57:45.639Z,68.59
2016-02-05T10:58:45.643Z,68.3
2016-02-05T10:59:45.630Z,68.21
2016-02-05T11:00:45.648Z,68.21
2016-02-05T11:01:45.635Z,68.59
2016-02-05T11:02:45.640Z,68.15
2016-02-05T11:03:45.642Z,67.76
2016-02-05T11:04:45.630Z,67.95
2016-02-05T11:05:45.633Z,67.67
2016-02-05T11:06:45.635Z,67.29
2016-02-05T11:07:45.622Z,67.47
2016-02-05T11:08:45.624Z,67.67
2016-02-05T11:09:45.612Z,66.91
2016-02-05T11:10:45.615Z,66.81
2016-02-05T11:11:45.634Z,66.62
2016-02-05T11:12:45.621Z,66.62
2016-02-05T11:13:45.608Z,66.56
2016-02-05T11:14:45.627Z,65.89
2016-02-05T11:15:45.597Z,65.89
2016-02-05T11:16:45.618Z,65.8
2016-02-05T11:17:45.604Z,65.7
2016-02-05T11:18:45.607Z,65.13
2016-02-05T11:19:45.597Z,65.13
2016-02-05T11:20:45.599Z,64.65
2016-02-05T11:21:45.602Z,64.94
2016-02-05T11:22:45.604Z,64.37
2016-02-05T11:23:45.591Z,64.37
2016-02-05T11:24:45.611Z,64.65
2016-02-05T11:25:45.598Z,64.37
2016-02-05T11:26:45.600Z,64.02
2016-02-05T11:27:45.587Z,63.73
2016-02-05T11:28:45.590Z,63.26
2016-02-05T11:29:45.592Z,63.17
2016-02-05T11:30:45.580Z,63.07
2016-02-05T11:31:45.584Z,62.97
2016-02-05T11:32:45.588Z,62.78
2016-02-05T11:33:45.574Z,62.88
2016-02-05T11:34:45.593Z,62.78
2016-02-05T11:35:45.579Z,62.78
2016-02-05T11:36:45.572Z,62.49
2016-02-05T11:37:45.573Z,62.88
2016-02-05T11:38:45.576Z,62.97
2016-02-05T11:39:45.565Z,62.49
2016-02-05T11:40:45.567Z,62.46
2016-02-05T11:41:45.570Z,62.65
2016-02-05T11:42:45.572Z,62.94
2016-02-05T11:43:45.559Z,63.42
2016-02-05T11:44:45.562Z,63.23
2016-02-05T11:45:45.565Z,63.32
2016-02-05T11:46:45.567Z,63.67
2016-02-05T11:47:45.570Z,64.15
2016-02-05T11:48:45.556Z,64.24
2016-02-05T11:49:45.559Z,64.81
2016-02-05T11:50:45.562Z,64.81
2016-02-05T11:51:45.550Z,65.19
2016-02-05T11:52:45.552Z,65.45
2016-02-05T11:53:45.555Z,66.14
2016-02-05T11:54:45.541Z,65.83
2016-02-05T11:55:45.544Z,66.2
2016-02-05T11:56:45.547Z,66.2
2016-02-05T11:57:45.534Z,66.39
2016-02-05T11:58:45.537Z,66.3
2016-02-05T11:59:45.556Z,66.2
2016-02-05T12:00:45.527Z,66.24
2016-02-05T12:01:45.545Z,66.24
2016-02-05T12:02:45.549Z,66.24
2016-02-05T12:03:45.537Z,66.24
2016-02-05T12:04:45.542Z,66.53
2016-02-05T12:05:45.544Z,66.24
2016-02-05T12:06:45.531Z,66.43
2016-02-05T12:07:45.534Z,66.62
2016-02-05T12:08:45.522Z,66.72
2016-02-05T12:09:45.527Z,66.81
2016-02-05T12:10:45.530Z,66.62
2016-02-05T12:11:45.548Z,66.72
2016-02-05T12:12:45.520Z,66.72
2016-02-05T12:13:45.523Z,66.62
2016-02-05T12:14:45.509Z,66.72
2016-02-05T12:15:45.512Z,66.62
2016-02-05T12:16:45.514Z,66.81
2016-02-05T12:17:45.504Z,66.62
2016-02-05T12:18:45.507Z,66.14
2016-02-05T12:19:45.510Z,66.62
2016-02-05T12:20:45.512Z,66.43
2016-02-05T12:21:45.499Z,65.95
2016-02-05T12:22:45.504Z,65.95
2016-02-05T12:23:45.506Z,65.95
2016-02-05T12:24:45.493Z,65.95
2016-02-05T12:25:45.512Z,65.95
2016-02-05T12:26:45.500Z,65.58
2016-02-05T12:27:45.502Z,65.19
2016-02-05T12:28:45.490Z,64.65
2016-02-05T12:29:45.492Z,65.13
2016-02-05T12:30:45.498Z,64.18
2016-02-05T12:31:45.359Z,64.28
2016-02-05T12:32:45.487Z,63.89
2016-02-05T12:33:45.493Z,63.26
2016-02-05T12:34:45.341Z,62.68
2016-02-05T12:35:45.483Z,62.68
2016-02-05T12:36:45.486Z,61.67
2016-02-05T12:37:45.476Z,61.1
2016-02-05T12:38:45.479Z,60.81
2016-02-05T12:39:45.528Z,60.72
2016-02-05T12:40:45.484Z,60.24
2016-02-05T12:41:45.487Z,59.03
2016-02-05T12:42:45.491Z,58.55
2016-02-05T12:43:45.493Z,58.55
2016-02-05T12:44:45.481Z,58.46
2016-02-05T12:45:45.483Z,58.36
2016-02-05T12:46:45.487Z,58.26
2016-02-05T12:47:45.473Z,57.41
2016-02-05T12:48:45.476Z,57.22
2016-02-05T12:49:45.478Z,56.67
2016-02-05T12:50:45.470Z,56.58
2016-02-05T12:51:45.472Z,56.38
2016-02-05T12:52:45.475Z,56.58
2016-02-05T12:53:45.462Z,56.77
2016-02-05T12:54:45.465Z,56.2